sensor_id;sensor_type;location;lat;lon;timestamp;temperature;humidity
6355;DHT22;3210;48.708;9.030;2024-02-28T18:23:35;5.60;99.90
6355;DHT22;3210;48.708;9.030;2024-02-28T18:27:07;5.50;99.90
6355;DHT22;3210;48.708;9.030;2024-02-28T18:50:09;5.40;99.90
6355;DHT22;3210;48.708;9.030;2024-02-28T18:52:50;5.40;99.90
6355;DHT22;3210;48.708;9.030;2024-02-28T18:55:29;5.40;99.90
6355;DHT22;3210;48.708;9.030;2024-02-28T18:59:38;5.40;99.90
6355;DHT22;3210;48.708;9.030;2024-02-28T19:02:01;5.30;99.90
6355;DHT22;3210;48.708;9.030;2024-02-28T19:21:20;5.10;99.90
6355;DHT22;3210;48.708;9.030;2024-02-28T19:27:27;5.00;99.90
6355;DHT22;3210;48.708;9.030;2024-02-28T19:33:33;5.00;99.90
6355;DHT22;3210;48.708;9.030;2024-02-28T19:36:42;5.00;99.90
6355;DHT22;3210;48.708;9.030;2024-02-28T19:39:25;4.90;99.90
6355;DHT22;3210;48.708;9.030;2024-02-28T19:42:02;4.90;99.90
6355;DHT22;3210;48.708;9.030;2024-02-28T19:45:07;4.80;99.90
6355;DHT22;3210;48.708;9.030;2024-02-28T19:47:58;4.80;99.90
6355;DHT22;3210;48.708;9.030;2024-02-28T19:54:04;4.70;99.90
6355;DHT22;3210;48.708;9.030;2024-02-28T19:57:02;4.50;99.90
6355;DHT22;3210;48.708;9.030;2024-02-28T20:03:39;4.60;99.90
6355;DHT22;3210;48.708;9.030;2024-02-28T20:06:25;4.60;99.90
6355;DHT22;3210;48.708;9.030;2024-02-28T20:11:52;4.20;99.90
6355;DHT22;3210;48.708;9.030;2024-02-28T20:15:13;4.10;1.00
6355;DHT22;3210;48.708;9.030;2024-02-28T20:19:00;4.10;1.00
6355;DHT22;3210;48.708;9.030;2024-02-28T20:21:38;3.90;1.00
6355;DHT22;3210;48.708;9.030;2024-02-28T20:24:54;3.70;1.00
6355;DHT22;3210;48.708;9.030;2024-02-28T20:30:58;3.60;1.00
6355;DHT22;3210;48.708;9.030;2024-02-28T20:33:33;3.50;1.00
6355;DHT22;3210;48.708;9.030;2024-02-28T20:36:30;3.40;1.00
6355;DHT22;3210;48.708;9.030;2024-02-28T20:39:12;3.30;1.00
6355;DHT22;3210;48.708;9.030;2024-02-28T20:45:23;3.20;1.00
6355;DHT22;3210;48.708;9.030;2024-02-28T20:48:17;3.20;1.00
6355;DHT22;3210;48.708;9.030;2024-02-28T21:01:40;2.70;99.90
6355;DHT22;3210;48.708;9.030;2024-02-28T21:04:34;2.60;99.90
6355;DHT22;3210;48.708;9.030;2024-02-28T21:07:15;2.50;99.90
6355;DHT22;3210;48.708;9.030;2024-02-28T21:09:57;2.40;99.90
6355;DHT22;3210;48.708;9.030;2024-02-28T21:12:26;2.30;99.90
6355;DHT22;3210;48.708;9.030;2024-02-28T21:14:56;2.20;99.90
6355;DHT22;3210;48.708;9.030;2024-02-28T21:17:55;2.10;99.90
6355;DHT22;3210;48.708;9.030;2024-02-28T21:27:34;2.00;99.90
6355;DHT22;3210;48.708;9.030;2024-02-28T21:30:22;1.90;1.00
6355;DHT22;3210;48.708;9.030;2024-02-28T21:33:14;1.90;1.00
6355;DHT22;3210;48.708;9.030;2024-02-28T21:36:08;1.90;1.00
6355;DHT22;3210;48.708;9.030;2024-02-28T21:38:53;1.80;1.00
6355;DHT22;3210;48.708;9.030;2024-02-28T21:41:27;1.70;1.00
6355;DHT22;3210;48.708;9.030;2024-02-28T22:00:52;1.50;11.60
6355;DHT22;3210;48.708;9.030;2024-02-28T22:03:40;1.40;97.80
6355;DHT22;3210;48.708;9.030;2024-02-28T22:06:29;1.30;99.90
6355;DHT22;3210;48.708;9.030;2024-02-28T22:09:14;1.40;99.90
6355;DHT22;3210;48.708;9.030;2024-02-28T22:12:10;1.20;99.90
6355;DHT22;3210;48.708;9.030;2024-02-28T22:14:50;1.20;99.90
6355;DHT22;3210;48.708;9.030;2024-02-28T22:27:21;1.00;99.90
6355;DHT22;3210;48.708;9.030;2024-02-28T22:30:15;0.90;99.90
6355;DHT22;3210;48.708;9.030;2024-02-28T22:36:06;0.90;1.00
6355;DHT22;3210;48.708;9.030;2024-02-28T22:38:51;0.80;1.00
6355;DHT22;3210;48.708;9.030;2024-02-28T22:41:34;0.80;1.00
6355;DHT22;3210;48.708;9.030;2024-02-28T22:44:31;0.70;99.90
6355;DHT22;3210;48.708;9.030;2024-02-28T22:47:36;0.90;1.00
6355;DHT22;3210;48.708;9.030;2024-02-28T22:50:36;0.60;99.90
6355;DHT22;3210;48.708;9.030;2024-02-28T22:56:19;0.50;1.00
6355;DHT22;3210;48.708;9.030;2024-02-28T22:58:49;0.50;1.00
6355;DHT22;3210;48.708;9.030;2024-02-28T23:05:05;0.40;1.00
6355;DHT22;3210;48.708;9.030;2024-02-28T23:07:40;0.50;62.80
6355;DHT22;3210;48.708;9.030;2024-02-28T23:10:14;0.40;1.00
6355;DHT22;3210;48.708;9.030;2024-02-28T23:13:26;0.40;1.00
6355;DHT22;3210;48.708;9.030;2024-02-28T23:16:11;0.40;1.00
6355;DHT22;3210;48.708;9.030;2024-02-28T23:19:53;0.40;1.00
6355;DHT22;3210;48.708;9.030;2024-02-28T23:25:04;0.30;1.00
6355;DHT22;3210;48.708;9.030;2024-02-28T23:27:32;0.30;1.00
6355;DHT22;3210;48.708;9.030;2024-02-28T23:30:00;0.30;1.00
6355;DHT22;3210;48.708;9.030;2024-02-28T23:32:35;0.20;1.00
6355;DHT22;3210;48.708;9.030;2024-02-28T23:35:04;0.20;1.00
6355;DHT22;3210;48.708;9.030;2024-02-28T23:37:34;0.10;1.00
6355;DHT22;3210;48.708;9.030;2024-02-28T23:40:08;0.30;1.00
6355;DHT22;3210;48.708;9.030;2024-02-28T23:42:36;0.30;1.00
6355;DHT22;3210;48.708;9.030;2024-02-28T23:45:04;0.20;1.00
6355;DHT22;3210;48.708;9.030;2024-02-28T23:47:35;0.20;1.00
6355;DHT22;3210;48.708;9.030;2024-02-28T23:50:04;0.10;1.00
6355;DHT22;3210;48.708;9.030;2024-02-28T23:52:32;0.10;1.00
6355;DHT22;3210;48.708;9.030;2024-02-28T23:55:04;0.10;1.00
6355;DHT22;3210;48.708;9.030;2024-02-28T23:58:07;0.10;1.00
